Time;durP1;ratioP1;P1;durP2;ratioP2;P2;SDS_P1;SDS_P2;PMS_P1;PMS_P2;Temp;Humidity;BMP_temperature;BMP_pressure;BME280_temperature;BME280_humidity;BME280_pressure;Samples;Min_cycle;Max_cycle;Signal;HPM_P1;HPM_P2
2022/09/04 00:00:07;;;;;;;0.50;0.30;;;;;;;21.38;100.00;95581.63;5135738;27;20454;-63
2022/09/04 00:02:56;;;;;;;0.80;0.37;;;;;;;21.29;100.00;95584.44;5135700;27;20461;-63
2022/09/04 00:05:31;;;;;;;0.40;0.20;;;;;;;21.16;100.00;95582.78;5134549;27;20876;-63
2022/09/04 00:08:13;;;;;;;0.60;0.40;;;;;;;20.31;100.00;95591.38;5135514;27;20418;-63
2022/09/04 00:10:52;;;;;;;0.60;0.30;;;;;;;20.37;100.00;95584.69;5135357;27;20490;-63
2022/09/04 00:13:26;;;;;;;0.60;0.40;;;;;;;20.38;100.00;95587.06;5135616;27;20450;-63
2022/09/04 00:16:05;;;;;;;0.50;0.40;;;;;;;19.95;100.00;95575.66;5135648;27;20494;-62
2022/09/04 00:18:38;;;;;;;0.53;0.30;;;;;;;20.45;100.00;95581.97;5135631;27;20427;-63
2022/09/04 00:21:15;;;;;;;0.63;0.60;;;;;;;20.22;100.00;95584.09;5135184;27;21052;-63
2022/09/04 00:23:50;;;;;;;0.83;0.70;;;;;;;20.06;100.00;95579.59;5135042;27;20426;-62
2022/09/04 00:26:29;;;;;;;0.47;0.33;;;;;;;20.21;100.00;95584.44;5135131;27;20426;-63
2022/09/04 00:29:03;;;;;;;0.50;0.30;;;;;;;20.45;100.00;95586.53;5135148;27;20521;-63
2022/09/04 00:31:38;;;;;;;0.50;0.40;;;;;;;20.59;100.00;95587.13;5135366;27;20476;-62
2022/09/04 00:34:20;;;;;;;0.60;0.57;;;;;;;20.84;100.00;95586.16;5134895;27;20505;-63
2022/09/04 00:36:54;;;;;;;0.50;0.30;;;;;;;20.55;100.00;95596.94;5135364;27;20453;-63
2022/09/04 00:39:29;;;;;;;0.63;0.63;;;;;;;20.52;100.00;95592.19;5134895;27;20466;-63
2022/09/04 00:42:08;;;;;;;0.50;0.40;;;;;;;20.78;100.00;95599.03;5135101;27;20469;-62
2022/09/04 00:44:51;;;;;;;1.17;0.33;;;;;;;20.82;100.00;95607.28;5134923;27;20497;-62
2022/09/04 00:47:40;;;;;;;0.80;0.30;;;;;;;20.95;100.00;95614.28;5134844;27;20452;-62
2022/09/04 00:50:39;;;;;;;1.43;1.33;;;;;;;20.99;100.00;95611.75;5135092;27;20506;-62
2022/09/04 00:53:36;;;;;;;0.40;0.20;;;;;;;20.98;100.00;95612.84;5134460;27;20997;-62
2022/09/04 00:56:24;;;;;;;0.67;0.40;;;;;;;20.89;100.00;95619.09;5118007;27;20513;-62
2022/09/04 00:59:06;;;;;;;0.50;0.30;;;;;;;20.88;100.00;95624.81;5134712;27;20911;-62
2022/09/04 01:01:35;;;;;;;0.40;0.30;;;;;;;20.90;100.00;95620.66;5134335;27;20525;-61
2022/09/04 01:04:32;;;;;;;0.40;0.20;;;;;;;20.49;100.00;95620.56;5134326;27;20422;-62
2022/09/04 01:07:30;;;;;;;0.50;0.40;;;;;;;20.54;100.00;95625.78;5134553;27;20467;-62
2022/09/04 01:10:15;;;;;;;0.40;0.30;;;;;;;20.49;100.00;95622.50;5132833;27;20534;-62
2022/09/04 01:12:51;;;;;;;1.87;0.60;;;;;;;20.10;100.00;95623.56;5134442;27;20501;-63
2022/09/04 01:15:26;;;;;;;0.50;0.40;;;;;;;20.47;100.00;95630.09;5134018;27;20418;-63
2022/09/04 01:18:04;;;;;;;0.60;0.40;;;;;;;20.39;100.00;95593.25;5134072;27;20473;-63
2022/09/04 01:20:59;;;;;;;0.50;0.40;;;;;;;20.54;100.00;95628.47;5134229;27;20513;-63
2022/09/04 01:23:44;;;;;;;0.50;0.40;;;;;;;20.50;100.00;95632.94;5120671;27;20474;-63
2022/09/04 01:26:21;;;;;;;0.40;0.20;;;;;;;20.49;100.00;95646.72;5134143;27;20892;-63
2022/09/04 01:29:06;;;;;;;1.53;0.30;;;;;;;20.53;100.00;95637.69;5133887;27;20484;-64
2022/09/04 01:31:42;;;;;;;0.67;0.60;;;;;;;20.22;100.00;95637.13;5133818;27;20962;-63
2022/09/04 01:34:25;;;;;;;0.93;0.50;;;;;;;20.04;100.00;95593.34;5133924;27;20474;-64
2022/09/04 01:37:00;;;;;;;0.73;0.73;;;;;;;20.06;100.00;95572.28;5133650;27;20427;-62
2022/09/04 01:39:31;;;;;;;0.40;0.30;;;;;;;20.46;100.00;95642.00;5134103;27;20869;-63
2022/09/04 01:42:09;;;;;;;0.70;0.70;;;;;;;20.52;100.00;95638.78;5133535;27;20981;-63
2022/09/04 01:44:38;;;;;;;2.20;0.40;;;;;;;20.24;100.00;95640.31;5133771;27;20498;-63
2022/09/04 01:47:14;;;;;;;0.70;0.70;;;;;;;20.06;100.00;95618.03;5133483;27;20509;-64
2022/09/04 01:49:49;;;;;;;0.40;0.30;;;;;;;20.37;100.00;95633.94;5133437;27;20546;-63
2022/09/04 01:52:35;;;;;;;0.50;0.30;;;;;;;20.44;100.00;95636.91;5133576;27;20797;-63
2022/09/04 01:55:16;;;;;;;0.40;0.30;;;;;;;20.43;100.00;95634.56;5133299;27;20438;-63
2022/09/04 01:58:03;;;;;;;0.70;0.70;;;;;;;20.40;100.00;95630.59;5133370;27;20415;-62
2022/09/04 02:00:37;;;;;;;0.80;0.57;;;;;;;20.45;100.00;95643.88;5133589;27;20502;-62
2022/09/04 02:03:16;;;;;;;1.03;0.93;;;;;;;19.90;100.00;95638.50;5133049;27;20501;-63
2022/09/04 02:06:00;;;;;;;0.60;0.50;;;;;;;20.00;100.00;95640.84;5133340;27;20457;-63
2022/09/04 02:08:50;;;;;;;0.50;0.30;;;;;;;20.25;100.00;95647.28;5133252;27;20430;-62
2022/09/04 02:11:21;;;;;;;0.40;0.20;;;;;;;20.26;100.00;95648.88;5132947;27;20509;-62
2022/09/04 02:14:23;;;;;;;0.50;0.30;;;;;;;20.33;100.00;95651.06;5132957;27;20475;-62
2022/09/04 02:17:07;;;;;;;0.50;0.40;;;;;;;20.38;100.00;95650.88;5132837;27;20521;-62
2022/09/04 02:19:44;;;;;;;0.40;0.20;;;;;;;20.10;100.00;95650.47;5133622;27;20860;-61
2022/09/04 02:22:21;;;;;;;0.70;0.53;;;;;;;19.95;100.00;95641.03;5133344;27;20561;-62
2022/09/04 02:25:00;;;;;;;0.40;0.23;;;;;;;19.98;100.00;95648.47;5133227;27;20903;-62
2022/09/04 02:27:35;;;;;;;0.50;0.37;;;;;;;19.81;100.00;95642.31;5133163;27;20461;-62
2022/09/04 02:30:09;;;;;;;0.40;0.30;;;;;;;20.16;100.00;95654.59;5133016;27;20513;-62
2022/09/04 02:32:42;;;;;;;0.50;0.47;;;;;;;20.10;100.00;95640.50;5133020;27;20895;-62
2022/09/04 02:35:19;;;;;;;0.50;0.30;;;;;;;19.95;100.00;95659.06;5132659;27;20548;-62
2022/09/04 02:38:03;;;;;;;0.63;0.63;;;;;;;19.45;100.00;95662.28;5132780;27;20501;-63
2022/09/04 02:40:42;;;;;;;0.77;0.57;;;;;;;19.40;100.00;95650.91;5132547;27;20425;-62
2022/09/04 02:43:24;;;;;;;0.60;0.30;;;;;;;19.74;100.00;95655.44;5132596;27;20556;-62
2022/09/04 02:46:01;;;;;;;0.50;0.30;;;;;;;20.04;100.00;95641.78;5132845;27;20514;-62
2022/09/04 02:48:43;;;;;;;0.40;0.30;;;;;;;20.20;100.00;95639.34;5132724;27;20846;-61
2022/09/04 02:51:23;;;;;;;0.40;0.27;;;;;;;20.23;100.00;95638.75;5132817;27;20455;-62
2022/09/04 02:54:00;;;;;;;0.40;0.30;;;;;;;20.20;100.00;95645.53;5132604;27;20505;-62
2022/09/04 02:56:39;;;;;;;0.60;0.30;;;;;;;20.22;100.00;95642.50;5132510;27;20430;-62
2022/09/04 02:59:35;;;;;;;0.50;0.30;;;;;;;20.21;100.00;95630.94;5132465;27;20479;-62
2022/09/04 03:02:18;;;;;;;0.40;0.20;;;;;;;20.23;100.00;95631.47;5132446;27;20553;-62
2022/09/04 03:04:56;;;;;;;0.40;0.30;;;;;;;20.22;100.00;95629.06;5132481;28;20422;-62
2022/09/04 03:07:29;;;;;;;1.43;0.47;;;;;;;20.25;100.00;95625.75;5132700;27;20430;-62
2022/09/04 03:10:06;;;;;;;0.50;0.30;;;;;;;19.47;100.00;95632.38;5132340;28;20462;-61
2022/09/04 03:12:40;;;;;;;0.60;0.40;;;;;;;19.46;100.00;95628.91;5132262;28;20469;-62
2022/09/04 03:15:16;;;;;;;0.40;0.30;;;;;;;19.69;100.00;95626.81;5132224;28;20434;-62
2022/09/04 03:17:51;;;;;;;0.40;0.30;;;;;;;19.87;100.00;95631.06;5132289;28;20501;-62
2022/09/04 03:20:24;;;;;;;0.40;0.30;;;;;;;19.42;100.00;95635.22;5132284;28;20422;-62
2022/09/04 03:22:59;;;;;;;0.67;0.67;;;;;;;19.31;100.00;95636.63;5132351;27;20515;-62
2022/09/04 03:26:11;;;;;;;0.40;0.30;;;;;;;19.51;100.00;95636.81;5132283;28;20510;-62
2022/09/04 03:28:54;;;;;;;0.50;0.40;;;;;;;19.77;100.00;95642.16;5132430;28;20505;-62
2022/09/04 03:31:38;;;;;;;0.50;0.30;;;;;;;19.64;100.00;95643.91;5132264;27;20968;-62
2022/09/04 03:34:23;;;;;;;0.80;0.50;;;;;;;19.78;100.00;95634.88;5136105;27;20461;-62
2022/09/04 03:37:08;;;;;;;0.50;0.43;;;;;;;20.09;100.00;95628.16;5136812;27;20940;-62
2022/09/04 03:39:45;;;;;;;0.67;0.30;;;;;;;20.17;100.00;95640.78;5136565;27;20427;-62
2022/09/04 03:42:25;;;;;;;0.40;0.30;;;;;;;19.91;100.00;95636.59;5136230;27;20556;-62
2022/09/04 03:45:04;;;;;;;0.50;0.30;;;;;;;19.83;100.00;95645.47;5136228;27;20964;-62
2022/09/04 03:47:42;;;;;;;0.50;0.30;;;;;;;19.85;100.00;95633.28;5136391;27;20479;-61
2022/09/04 03:50:19;;;;;;;0.50;0.40;;;;;;;20.17;100.00;95643.47;5136368;27;20505;-61
2022/09/04 03:53:00;;;;;;;0.50;0.30;;;;;;;20.38;100.00;95638.22;5136139;27;20493;-61
2022/09/04 03:56:04;;;;;;;2.70;2.50;;;;;;;20.50;100.00;95645.59;5136350;27;20492;-61
2022/09/04 03:58:44;;;;;;;0.40;0.30;;;;;;;20.60;100.00;95650.63;5087918;27;20989;-61
2022/09/04 04:01:26;;;;;;;0.50;0.30;;;;;;;20.56;100.00;95658.59;5136114;27;20529;-61
2022/09/04 04:04:14;;;;;;;7.17;0.67;;;;;;;20.56;100.00;95657.78;5136034;27;20894;-61
2022/09/04 04:06:51;;;;;;;0.60;0.50;;;;;;;20.32;100.00;95671.81;5136109;27;20522;-61
2022/09/04 04:09:47;;;;;;;0.40;0.30;;;;;;;20.06;100.00;95674.53;5135677;27;20428;-60
2022/09/04 04:12:38;;;;;;;0.70;0.40;;;;;;;20.38;100.00;95689.38;5135899;27;20450;-61
2022/09/04 04:15:23;;;;;;;1.13;1.03;;;;;;;20.00;100.00;95702.72;5135878;27;20446;-61
2022/09/04 04:18:13;;;;;;;0.50;0.43;;;;;;;19.97;100.00;95711.44;5135598;27;20979;-61
2022/09/04 04:20:49;;;;;;;0.50;0.40;;;;;;;19.60;100.00;95712.91;5136229;27;20491;-61
2022/09/04 04:23:40;;;;;;;0.83;0.83;;;;;;;19.69;100.00;95715.56;5135783;27;20554;-61
2022/09/04 04:26:13;;;;;;;1.40;0.60;;;;;;;19.29;100.00;95714.09;5135552;27;20434;-62
2022/09/04 04:29:02;;;;;;;0.77;0.77;;;;;;;19.05;100.00;95722.56;5135393;27;20513;-62
2022/09/04 04:31:43;;;;;;;0.50;0.40;;;;;;;19.44;100.00;95725.22;5131851;27;21008;-62
2022/09/04 04:34:22;;;;;;;0.50;0.40;;;;;;;19.59;100.00;95724.75;5134339;27;20866;-62
2022/09/04 04:36:59;;;;;;;0.47;0.37;;;;;;;19.92;100.00;95719.66;5134854;27;20506;-62
2022/09/04 04:39:39;;;;;;;0.53;0.53;;;;;;;19.81;100.00;95720.31;5134480;27;20490;-62
2022/09/04 04:42:21;;;;;;;3.57;1.47;;;;;;;19.71;100.00;95716.03;5134706;27;20438;-61
2022/09/04 04:48:22;;;;;;;0.47;0.30;;;;;;;19.91;100.00;95723.47;5135255;27;20513;-61
2022/09/04 04:51:02;;;;;;;0.80;0.80;;;;;;;20.34;100.00;95726.09;5135327;27;20422;-61
2022/09/04 04:53:36;;;;;;;0.40;0.30;;;;;;;20.20;100.00;95694.00;5135387;27;20895;-61
2022/09/04 04:56:13;;;;;;;0.80;0.50;;;;;;;20.32;100.00;95725.66;5134967;27;20471;-61
2022/09/04 04:58:56;;;;;;;0.80;0.77;;;;;;;20.48;100.00;95731.31;5134967;27;20446;-61
2022/09/04 05:01:36;;;;;;;0.83;0.80;;;;;;;20.38;100.00;95745.13;5135089;27;21128;-61
2022/09/04 05:04:14;;;;;;;0.70;0.63;;;;;;;20.16;100.00;95741.47;5135298;27;20480;-60
2022/09/04 05:06:51;;;;;;;0.60;0.57;;;;;;;19.87;100.00;95737.88;5134631;27;20438;-61
2022/09/04 05:09:25;;;;;;;1.27;0.57;;;;;;;19.77;100.00;95747.06;5135083;27;20422;-62
2022/09/04 05:11:59;;;;;;;0.80;0.80;;;;;;;19.45;100.00;95704.50;5134644;27;20450;-61
2022/09/04 05:14:46;;;;;;;0.60;0.60;;;;;;;20.25;100.00;95738.81;5134590;27;20422;-61
2022/09/04 05:17:23;;;;;;;1.13;0.50;;;;;;;20.59;100.00;95754.88;5134924;27;20772;-61
2022/09/04 05:19:59;;;;;;;0.97;0.70;;;;;;;20.19;100.00;95756.19;5134372;27;20913;-61
2022/09/04 05:22:34;;;;;;;1.37;1.27;;;;;;;19.88;100.00;95761.78;5134449;27;20471;-60
2022/09/04 05:25:10;;;;;;;1.30;1.17;;;;;;;19.82;100.00;95751.47;5134377;27;20560;-61
2022/09/04 05:27:53;;;;;;;1.90;0.60;;;;;;;19.81;100.00;95771.44;5134627;27;20833;-61
2022/09/04 05:30:28;;;;;;;0.50;0.30;;;;;;;20.29;100.00;95763.97;5134178;27;20910;-61
2022/09/04 05:33:03;;;;;;;0.50;0.30;;;;;;;20.61;100.00;95752.66;5134562;27;20857;-61
2022/09/04 05:35:42;;;;;;;0.40;0.30;;;;;;;20.91;100.00;95761.59;5134007;27;20472;-61
2022/09/04 05:38:18;;;;;;;0.60;0.60;;;;;;;20.58;100.00;95680.59;5133894;27;20483;-61
2022/09/04 05:41:03;;;;;;;0.50;0.40;;;;;;;21.16;100.00;95757.22;5134395;27;20423;-60
2022/09/04 05:43:47;;;;;;;1.07;0.60;;;;;;;20.68;100.00;95757.53;5134154;27;20477;-61
2022/09/04 05:46:27;;;;;;;0.60;0.40;;;;;;;20.29;100.00;95734.34;5133867;27;20462;-61
2022/09/04 05:49:03;;;;;;;0.60;0.30;;;;;;;20.84;100.00;95747.81;5134200;27;20430;-61
2022/09/04 05:51:55;;;;;;;0.50;0.50;;;;;;;21.16;100.00;95752.63;5134154;27;20816;-60
2022/09/04 05:54:50;;;;;;;0.40;0.40;;;;;;;21.37;100.00;95750.75;5133842;27;20514;-61
2022/09/04 05:57:30;;;;;;;0.40;0.30;;;;;;;21.50;100.00;95762.41;5134055;27;20447;-60
2022/09/04 06:00:14;;;;;;;1.07;0.30;;;;;;;21.83;100.00;95759.81;5133630;27;20422;-60
2022/09/04 06:03:08;;;;;;;0.50;0.40;;;;;;;22.22;100.00;95753.94;5133949;27;20426;-59
2022/09/04 06:05:46;;;;;;;0.60;0.40;;;;;;;21.75;100.00;95660.81;5133558;27;20435;-59
2022/09/04 06:08:32;;;;;;;0.40;0.40;;;;;;;22.68;100.00;95742.84;5133385;27;20513;-60
2022/09/04 06:11:26;;;;;;;0.50;0.30;;;;;;;23.00;100.00;95706.03;5133772;27;20429;-57
2022/09/04 06:14:07;;;;;;;0.60;0.60;;;;;;;23.09;100.00;95689.69;5133597;27;20474;-56
2022/09/04 06:16:50;;;;;;;1.03;0.40;;;;;;;23.59;100.00;95749.63;5133309;27;20934;-56
2022/09/04 06:19:37;;;;;;;0.73;0.70;;;;;;;24.10;100.00;95748.03;5132832;27;20981;-56
2022/09/04 06:22:39;;;;;;;0.73;0.73;;;;;;;23.56;100.00;95736.75;5130347;27;20466;-56
2022/09/04 06:25:37;;;;;;;0.90;0.63;;;;;;;24.36;100.00;95737.53;5088989;27;20866;-56
2022/09/04 06:28:41;;;;;;;1.17;1.07;;;;;;;24.93;95.70;95731.69;5133133;27;20510;-56
2022/09/04 06:31:33;;;;;;;0.50;0.50;;;;;;;25.12;95.32;95734.47;5133170;27;20461;-56
2022/09/04 06:34:14;;;;;;;0.60;0.50;;;;;;;24.87;93.72;95730.38;5132895;27;20478;-55
2022/09/04 06:37:02;;;;;;;0.90;0.63;;;;;;;24.25;97.16;95727.56;5133244;27;20430;-55
2022/09/04 06:39:50;;;;;;;0.90;0.90;;;;;;;24.59;98.33;95726.94;5133318;27;20450;-56
2022/09/04 06:42:30;;;;;;;0.73;0.73;;;;;;;24.50;96.00;95691.84;5132889;27;20425;-56
2022/09/04 06:45:11;;;;;;;0.80;0.80;;;;;;;25.07;90.96;95729.31;5131427;27;20501;-56
2022/09/04 06:47:57;;;;;;;2.33;0.47;;;;;;;25.34;90.69;95683.41;5132229;27;20458;-56
2022/09/04 06:50:34;;;;;;;0.80;0.80;;;;;;;25.86;87.31;95724.53;5131679;27;20466;-56
2022/09/04 06:53:20;;;;;;;0.70;0.70;;;;;;;25.77;88.71;95691.38;5130214;27;20513;-56
2022/09/04 06:56:01;;;;;;;0.80;0.77;;;;;;;25.62;89.58;95690.28;5130521;27;20480;-56
2022/09/04 06:58:57;;;;;;;3.00;0.90;;;;;;;26.48;89.13;95712.59;5130721;27;20529;-56
2022/09/04 07:01:41;;;;;;;0.53;0.53;;;;;;;26.15;84.84;95680.53;5130946;27;20557;-56
2022/09/04 07:04:23;;;;;;;0.80;0.80;;;;;;;25.57;85.29;95662.63;5130908;27;21148;-56
2022/09/04 07:07:03;;;;;;;0.67;0.60;;;;;;;26.26;86.33;95705.94;5131519;27;20521;-56
2022/09/04 07:09:37;;;;;;;5.70;1.27;;;;;;;25.84;84.76;95648.06;5132515;28;20854;-56
2022/09/04 07:12:24;;;;;;;1.70;0.70;;;;;;;26.28;85.71;95698.25;5132726;27;20452;-56
2022/09/04 07:15:25;;;;;;;0.70;0.60;;;;;;;27.17;80.37;95681.53;5132390;28;20513;-56
2022/09/04 07:18:05;;;;;;;0.50;0.50;;;;;;;27.44;78.25;95690.50;5098758;27;20441;-55
2022/09/04 07:20:41;;;;;;;1.57;0.63;;;;;;;27.54;78.28;95687.91;5132390;27;20470;-56
2022/09/04 07:23:31;;;;;;;0.80;0.80;;;;;;;27.36;78.45;95697.72;5132266;28;20948;-56
2022/09/04 07:26:11;;;;;;;1.37;1.27;;;;;;;27.61;72.50;95644.44;5132295;28;21030;-56
2022/09/04 07:28:53;;;;;;;1.97;0.80;;;;;;;28.20;72.37;95706.28;5132627;28;20515;-56
2022/09/04 07:31:27;;;;;;;0.90;0.63;;;;;;;28.93;71.99;95705.50;5132141;28;20853;-56
2022/09/04 07:34:01;;;;;;;0.70;0.70;;;;;;;28.72;65.93;95705.28;5132306;28;20468;-56
2022/09/04 07:36:39;;;;;;;8.60;0.60;;;;;;;28.64;65.40;95698.19;5132277;28;20460;-56
2022/09/04 07:39:20;;;;;;;0.40;0.40;;;;;;;28.98;61.13;95693.44;5132248;28;20892;-56
2022/09/04 07:41:58;;;;;;;0.77;0.73;;;;;;;28.93;59.62;95705.50;5132015;28;20448;-56
2022/09/04 07:44:34;;;;;;;0.90;0.60;;;;;;;29.23;58.13;95682.72;5132054;28;20543;-56
2022/09/04 07:47:13;;;;;;;1.23;1.23;;;;;;;29.14;59.46;95693.97;5132149;27;20421;-56
2022/09/04 07:49:51;;;;;;;1.67;0.83;;;;;;;29.43;57.96;95695.75;5132399;28;20417;-55
2022/09/04 07:52:35;;;;;;;0.60;0.57;;;;;;;30.38;53.88;95689.22;5132410;28;20468;-55
2022/09/04 07:55:14;;;;;;;0.40;0.30;;;;;;;30.05;53.02;95693.78;5132435;28;20473;-55
2022/09/04 07:58:01;;;;;;;0.57;0.57;;;;;;;30.34;52.90;95630.94;5132466;27;20523;-55
2022/09/04 08:00:36;;;;;;;0.73;0.73;;;;;;;30.94;50.71;95697.50;5132339;28;20993;-54
2022/09/04 08:03:25;;;;;;;0.70;0.70;;;;;;;31.01;52.87;95694.81;5132412;28;20426;-54
2022/09/04 08:06:00;;;;;;;1.83;1.73;;;;;;;31.15;52.96;95688.53;5132571;28;20495;-54
2022/09/04 08:08:51;;;;;;;0.50;0.50;;;;;;;32.42;45.48;95686.25;5132221;28;20455;-55
2022/09/04 08:11:44;;;;;;;0.50;0.40;;;;;;;32.52;44.53;95679.94;5132387;28;20446;-54
2022/09/04 08:14:23;;;;;;;0.87;0.87;;;;;;;32.69;45.70;95688.47;5132249;27;20485;-54
2022/09/04 08:17:24;;;;;;;2.50;0.93;;;;;;;32.03;46.58;95695.84;5132195;28;20782;-54
2022/09/04 08:20:03;;;;;;;1.37;1.27;;;;;;;31.45;49.22;95688.91;5136159;27;20425;-54
2022/09/04 08:22:44;;;;;;;1.03;1.03;;;;;;;31.36;47.99;95710.44;5135905;27;20987;-54
2022/09/04 08:25:20;;;;;;;0.83;0.83;;;;;;;31.82;47.06;95713.91;5136097;27;20496;-54
2022/09/04 08:28:09;;;;;;;0.50;0.50;;;;;;;32.53;46.32;95703.47;5135795;27;20445;-53
2022/09/04 08:30:43;;;;;;;1.03;0.90;;;;;;;32.83;44.47;95699.34;5135717;27;20454;-54
2022/09/04 08:33:35;;;;;;;1.40;1.37;;;;;;;33.06;44.11;95672.13;5135822;27;20471;-54
2022/09/04 08:36:14;;;;;;;6.20;1.43;;;;;;;32.52;44.15;95666.22;5136044;27;20887;-54
2022/09/04 08:39:03;;;;;;;1.07;1.03;;;;;;;32.42;47.25;95664.28;5135630;27;20422;-54
2022/09/04 08:42:16;;;;;;;1.73;1.63;;;;;;;32.52;45.67;95668.16;5135867;27;20407;-54
2022/09/04 08:45:21;;;;;;;0.80;0.80;;;;;;;34.24;42.21;95673.25;5135254;27;21009;-54
2022/09/04 08:48:31;;;;;;;2.37;2.17;;;;;;;32.23;44.25;95675.75;5135586;27;20457;-54
2022/09/04 08:51:38;;;;;;;0.77;0.77;;;;;;;32.63;44.85;95672.44;5135285;27;20430;-55
2022/09/04 08:54:41;;;;;;;1.13;0.80;;;;;;;33.42;42.39;95662.34;5134765;27;20429;-54
2022/09/04 08:57:40;;;;;;;0.63;0.63;;;;;;;34.63;38.71;95675.53;5135521;27;20420;-53
2022/09/04 09:00:12;;;;;;;0.60;0.57;;;;;;;34.70;38.64;95695.47;5135158;27;20438;-53
2022/09/04 09:03:28;;;;;;;0.83;0.83;;;;;;;34.09;40.38;95685.63;5135393;27;20944;-54
2022/09/04 09:06:28;;;;;;;2.53;0.50;;;;;;;33.60;42.20;95682.22;5099358;27;20510;-54
2022/09/04 09:09:32;;;;;;;0.50;0.50;;;;;;;34.27;42.01;95675.97;5134957;27;20470;-54
2022/09/04 09:12:28;;;;;;;4.67;1.60;;;;;;;33.69;41.97;95677.03;5135154;27;20509;-54
2022/09/04 09:15:34;;;;;;;0.63;0.63;;;;;;;33.97;42.07;95677.91;5134938;27;21044;-54
2022/09/04 09:18:11;;;;;;;0.93;0.83;;;;;;;33.23;42.37;95617.03;5135189;27;20448;-55
2022/09/04 09:20:52;;;;;;;1.10;1.10;;;;;;;33.27;42.85;95674.66;5135100;27;20433;-55
2022/09/04 09:23:37;;;;;;;3.53;1.17;;;;;;;33.55;41.30;95668.94;5134734;27;20426;-55
2022/09/04 09:26:23;;;;;;;1.50;0.70;;;;;;;33.30;41.61;95673.88;5134866;27;20481;-54
2022/09/04 09:29:23;;;;;;;0.90;0.90;;;;;;;33.20;41.44;95678.28;5134779;27;20451;-54
2022/09/04 09:32:33;;;;;;;2.87;2.77;;;;;;;34.57;39.38;95675.19;5134607;27;20971;-54
2022/09/04 09:35:45;;;;;;;11.10;0.80;;;;;;;35.83;36.96;95668.78;5134109;27;20530;-54
2022/09/04 09:38:42;;;;;;;0.70;0.63;;;;;;;35.78;35.38;95665.72;5134718;27;20428;-53
2022/09/04 09:42:02;;;;;;;2.30;0.87;;;;;;;33.77;38.75;95629.03;5134215;27;20514;-54
2022/09/04 09:45:05;;;;;;;1.07;0.97;;;;;;;34.12;38.89;95643.56;5044321;27;20278;-53
2022/09/04 09:48:21;;;;;;;0.43;0.40;;;;;;;35.15;36.11;95646.38;5134254;27;20193;-53
2022/09/04 09:51:27;;;;;;;0.33;0.33;;;;;;;35.01;36.94;95633.59;5050722;28;20194;-53
2022/09/04 09:54:25;;;;;;;0.60;0.50;;;;;;;36.05;35.54;95625.78;5115362;27;20190;-54
2022/09/04 09:57:39;;;;;;;0.43;0.40;;;;;;;36.57;34.18;95614.81;5134229;27;20197;-54
2022/09/04 10:00:14;;;;;;;0.67;0.50;;;;;;;36.26;34.53;95614.28;5133994;27;20187;-54
2022/09/04 10:03:29;;;;;;;1.40;1.30;;;;;;;35.55;35.87;95616.91;5134294;27;20613;-54
2022/09/04 10:06:26;;;;;;;0.50;0.50;;;;;;;36.70;36.18;95610.16;5134104;27;20263;-54
2022/09/04 10:09:38;;;;;;;0.93;0.80;;;;;;;36.26;35.62;95613.50;5134077;27;20246;-54
2022/09/04 10:12:45;;;;;;;1.03;1.03;;;;;;;36.09;35.94;95609.94;5133672;27;20190;-54
2022/09/04 10:16:01;;;;;;;0.53;0.53;;;;;;;35.64;36.24;95600.59;5088450;27;20277;-55
2022/09/04 10:19:15;;;;;;;0.93;0.93;;;;;;;34.36;38.45;95584.63;5133606;27;20226;-55
2022/09/04 10:22:20;;;;;;;0.60;0.50;;;;;;;35.16;37.05;95603.06;5133872;27;20194;-55
2022/09/04 10:25:20;;;;;;;0.80;0.50;;;;;;;34.39;38.61;95595.59;5108835;27;20277;-55
2022/09/04 10:28:29;;;;;;;1.10;0.80;;;;;;;34.05;38.00;95585.84;5099168;27;20281;-55
2022/09/04 10:31:32;;;;;;;0.97;0.87;;;;;;;34.47;39.35;95590.75;5049920;28;20281;-55
2022/09/04 10:34:35;;;;;;;1.13;1.13;;;;;;;34.31;37.01;95582.34;5133028;27;20308;-55
2022/09/04 10:37:19;;;;;;;0.60;0.60;;;;;;;34.70;38.36;95588.06;5128482;27;20699;-55
2022/09/04 10:43:08;;;;;;;0.80;0.67;;;;;;;33.80;37.13;95575.94;5132340;27;20190;-54
2022/09/04 10:45:38;;;;;;;0.53;0.53;;;;;;;33.49;39.15;95577.09;5133389;27;20562;-56
2022/09/04 10:48:31;;;;;;;0.60;0.60;;;;;;;33.84;39.91;95575.91;5132996;27;20462;-55
2022/09/04 10:51:33;;;;;;;0.60;0.40;;;;;;;33.86;39.45;95577.06;5132656;27;20227;-55
2022/09/04 10:54:31;;;;;;;0.50;0.47;;;;;;;33.27;40.75;95584.00;5132868;27;20774;-56
2022/09/04 10:57:13;;;;;;;0.83;0.50;;;;;;;33.44;39.66;95572.06;5131885;27;20798;-55
2022/09/04 11:00:06;;;;;;;1.13;1.03;;;;;;;33.47;40.23;95546.47;5132777;27;20459;-56
2022/09/04 11:03:27;;;;;;;0.60;0.60;;;;;;;32.97;39.67;95567.41;5132858;27;20423;-55
2022/09/04 11:06:31;;;;;;;0.40;0.40;;;;;;;32.92;40.48;95565.88;5085587;28;20530;-55
2022/09/04 11:09:31;;;;;;;0.50;0.40;;;;;;;32.75;39.31;95533.09;5132482;27;20520;-57
2022/09/04 11:12:30;;;;;;;0.40;0.30;;;;;;;32.18;42.31;95562.94;5132675;28;20481;-55
2022/09/04 11:15:18;;;;;;;0.60;0.40;;;;;;;32.11;45.33;95566.50;5132728;28;20462;-56
2022/09/04 11:18:14;;;;;;;0.80;0.80;;;;;;;32.95;41.52;95562.31;5132615;28;20485;-56
2022/09/04 11:21:19;;;;;;;2.63;1.27;;;;;;;33.49;40.45;95565.31;5132743;28;20436;-56
2022/09/04 11:24:21;;;;;;;0.93;0.43;;;;;;;34.34;37.21;95556.75;5132194;28;20425;-56
2022/09/04 11:27:19;;;;;;;0.60;0.60;;;;;;;34.49;38.49;95558.09;5129319;28;20478;-56
2022/09/04 11:30:06;;;;;;;0.80;0.80;;;;;;;33.55;38.05;95555.47;5132113;27;20512;-56
2022/09/04 11:33:07;;;;;;;1.50;0.40;;;;;;;34.37;37.04;95547.66;5131991;28;20487;-56
2022/09/04 11:35:55;;;;;;;0.70;0.60;;;;;;;33.29;38.17;95558.88;5111562;28;20530;-57
2022/09/04 11:38:53;;;;;;;0.40;0.30;;;;;;;34.38;36.11;95543.72;5111337;28;20450;-56
2022/09/04 11:41:44;;;;;;;0.80;0.50;;;;;;;34.29;35.97;95548.97;5109440;28;20953;-55
2022/09/04 11:44:49;;;;;;;2.10;0.67;;;;;;;34.54;37.09;95541.09;5111534;28;20471;-56
2022/09/04 11:47:42;;;;;;;0.47;0.47;;;;;;;34.48;36.34;95538.03;5111635;28;20532;-55
2022/09/04 11:50:39;;;;;;;1.03;0.90;;;;;;;34.95;34.01;95541.59;5111374;28;20455;-55
2022/09/04 11:53:26;;;;;;;0.40;0.40;;;;;;;35.96;31.97;95537.25;5105085;28;20602;-55
2022/09/04 11:56:21;;;;;;;0.40;0.30;;;;;;;35.79;31.61;95541.19;5114701;28;20901;-55
2022/09/04 11:59:08;;;;;;;0.50;0.50;;;;;;;34.24;34.11;95538.44;5114652;28;20475;-55
2022/09/04 12:01:54;;;;;;;1.90;0.40;;;;;;;34.48;35.65;95534.53;5115282;28;20269;-55
2022/09/04 12:04:40;;;;;;;0.50;0.40;;;;;;;34.10;39.15;95524.88;5115355;28;20419;-55
2022/09/04 12:07:25;;;;;;;1.07;0.97;;;;;;;33.73;35.74;95521.03;5114066;27;20515;-55
2022/09/04 12:10:23;;;;;;;0.50;0.40;;;;;;;33.08;38.94;95516.72;5115130;28;20460;-55
2022/09/04 12:13:42;;;;;;;0.60;0.50;;;;;;;33.44;37.81;95508.06;5115538;27;20825;-55
2022/09/04 12:16:58;;;;;;;0.40;0.30;;;;;;;32.42;35.71;95502.41;5111237;28;20450;-56
2022/09/04 12:20:05;;;;;;;0.33;0.33;;;;;;;32.16;40.31;95502.97;5115059;28;20437;-56
2022/09/04 12:23:26;;;;;;;0.50;0.37;;;;;;;32.95;37.35;95506.63;5115321;28;20838;-55
2022/09/04 12:26:38;;;;;;;0.57;0.57;;;;;;;32.34;39.48;95505.59;5051810;28;20460;-56
2022/09/04 12:29:57;;;;;;;0.90;0.87;;;;;;;33.66;35.29;95499.16;5114812;28;20434;-56
2022/09/04 12:32:51;;;;;;;0.60;0.40;;;;;;;34.41;34.32;95491.34;5113391;28;20474;-55
2022/09/04 12:35:54;;;;;;;0.53;0.50;;;;;;;34.61;32.76;95477.66;5132994;27;20603;-55
2022/09/04 12:38:57;;;;;;;0.40;0.30;;;;;;;35.18;32.66;95490.44;5135222;27;20973;-54
2022/09/04 12:41:32;;;;;;;0.50;0.50;;;;;;;35.08;32.44;95492.97;5094929;27;20462;-54
2022/09/04 12:44:08;;;;;;;0.40;0.30;;;;;;;35.12;32.95;95489.38;5135139;27;20485;-55
2022/09/04 12:46:54;;;;;;;0.67;0.67;;;;;;;35.33;32.64;95486.19;5135401;27;20546;-54
2022/09/04 12:50:01;;;;;;;0.57;0.50;;;;;;;34.68;31.99;95491.34;5134988;27;20318;-54
2022/09/04 12:52:44;;;;;;;0.40;0.40;;;;;;;35.43;33.19;95479.66;5094645;27;20260;-54
2022/09/04 12:55:22;;;;;;;0.40;0.33;;;;;;;36.06;29.32;95483.84;5135068;27;20298;-54
2022/09/04 12:58:01;;;;;;;0.60;0.47;;;;;;;34.83;30.42;95481.63;5134689;27;20638;-54
2022/09/04 13:00:39;;;;;;;0.50;0.40;;;;;;;34.33;32.34;95476.16;5134720;27;20217;-55
2022/09/04 13:03:27;;;;;;;0.60;0.50;;;;;;;34.76;31.37;95465.19;5135096;27;20187;-55
2022/09/04 13:06:15;;;;;;;0.40;0.30;;;;;;;35.29;30.44;95444.16;5133597;27;20224;-54